Packwaukee, Wisconsin
Current Conditions -  °F | °C
As of 12:29 AM on Saturday 25 Oct 2014 (Local Time) from KY50 Reporting Station
Haze Haze  
Wind Chill: 55°   Ceiling: 100
Heat Index: 55°   Visibility: 4mi
Dew Point: 54°   Wind: 7mph
Humidity: 94%   Direction: 250°WSW
Pressure: 29.85"   Gusts: NA
Location:  43.76°N, 89.46°W
Report Text: KY50 250529Z AUTO 25006KT 4SM BR BKN001 OVC009 13/12 A2985 RMK AO2 TSNO BKN V SCT
Loading
Personal Weather Stations






























Interactive Weather Map
Tropical Storm Tracking
New forecast layout! Learn more

10-Day Weather Forecast

Advertisements
Track Severe Weather on mobile